sensor_id;sensor_type;location;lat;lon;timestamp;temperature;humidity
65207;SHT31;58477;48.072;11.970;2022-11-11T00:02:09;5.73;96.04
65207;SHT31;58477;48.072;11.970;2022-11-11T00:04:54;5.67;96.19
65207;SHT31;58477;48.072;11.970;2022-11-11T00:07:38;5.67;96.26
65207;SHT31;58477;48.072;11.970;2022-11-11T00:10:22;5.56;96.15
65207;SHT31;58477;48.072;11.970;2022-11-11T00:13:06;5.51;96.22
65207;SHT31;58477;48.072;11.970;2022-11-11T00:15:51;5.31;96.35
65207;SHT31;58477;48.072;11.970;2022-11-11T00:18:35;5.36;96.88
65207;SHT31;58477;48.072;11.970;2022-11-11T00:21:38;5.36;96.86
65207;SHT31;58477;48.072;11.970;2022-11-11T00:24:41;5.39;96.91
65207;SHT31;58477;48.072;11.970;2022-11-11T00:27:44;5.45;96.83
65207;SHT31;58477;48.072;11.970;2022-11-11T00:30:28;5.44;96.86
65207;SHT31;58477;48.072;11.970;2022-11-11T00:33:13;5.39;96.78
65207;SHT31;58477;48.072;11.970;2022-11-11T00:35:57;5.34;96.82
65207;SHT31;58477;48.072;11.970;2022-11-11T00:38:41;5.31;96.89
65207;SHT31;58477;48.072;11.970;2022-11-11T00:41:28;5.32;96.94
65207;SHT31;58477;48.072;11.970;2022-11-11T00:44:12;5.45;96.99
65207;SHT31;58477;48.072;11.970;2022-11-11T00:46:56;5.39;96.69
65207;SHT31;58477;48.072;11.970;2022-11-11T00:49:59;5.38;96.76
65207;SHT31;58477;48.072;11.970;2022-11-11T00:53:03;5.17;96.05
65207;SHT31;58477;48.072;11.970;2022-11-11T00:55:51;5.10;97.07
65207;SHT31;58477;48.072;11.970;2022-11-11T00:58:35;5.11;97.32
65207;SHT31;58477;48.072;11.970;2022-11-11T01:01:19;5.12;97.40
65207;SHT31;58477;48.072;11.970;2022-11-11T01:04:04;5.18;97.32
65207;SHT31;58477;48.072;11.970;2022-11-11T01:06:48;5.28;97.12
65207;SHT31;58477;48.072;11.970;2022-11-11T01:09:32;5.24;96.79
65207;SHT31;58477;48.072;11.970;2022-11-11T01:12:16;5.20;96.72
65207;SHT31;58477;48.072;11.970;2022-11-11T01:15:00;5.15;96.63
65207;SHT31;58477;48.072;11.970;2022-11-11T01:17:44;5.10;96.37
65207;SHT31;58477;48.072;11.970;2022-11-11T01:20:28;5.08;96.52
65207;SHT31;58477;48.072;11.970;2022-11-11T01:23:13;5.15;96.78
65207;SHT31;58477;48.072;11.970;2022-11-11T01:26:05;5.22;96.70
65207;SHT31;58477;48.072;11.970;2022-11-11T01:28:51;5.20;96.29
65207;SHT31;58477;48.072;11.970;2022-11-11T01:31:35;5.02;96.75
65207;SHT31;58477;48.072;11.970;2022-11-11T01:34:19;5.20;96.80
65207;SHT31;58477;48.072;11.970;2022-11-11T01:37:03;5.25;96.53
65207;SHT31;58477;48.072;11.970;2022-11-11T01:39:47;5.30;95.95
65207;SHT31;58477;48.072;11.970;2022-11-11T01:42:52;5.30;95.49
65207;SHT31;58477;48.072;11.970;2022-11-11T01:45:47;5.25;95.27
65207;SHT31;58477;48.072;11.970;2022-11-11T01:48:40;5.18;95.15
65207;SHT31;58477;48.072;11.970;2022-11-11T01:55:01;5.02;96.42
65207;SHT31;58477;48.072;11.970;2022-11-11T01:57:56;4.81;96.34
65207;SHT31;58477;48.072;11.970;2022-11-11T02:00:42;4.84;96.99
65207;SHT31;58477;48.072;11.970;2022-11-11T02:03:29;4.95;96.90
65207;SHT31;58477;48.072;11.970;2022-11-11T02:06:14;5.11;96.34
65207;SHT31;58477;48.072;11.970;2022-11-11T02:08:58;5.30;95.64
65207;SHT31;58477;48.072;11.970;2022-11-11T02:11:44;5.41;95.23
65207;SHT31;58477;48.072;11.970;2022-11-11T02:14:52;5.46;94.93
65207;SHT31;58477;48.072;11.970;2022-11-11T02:17:37;5.49;94.63
65207;SHT31;58477;48.072;11.970;2022-11-11T02:20:25;5.39;94.56
65207;SHT31;58477;48.072;11.970;2022-11-11T02:26:15;5.48;94.46
65207;SHT31;58477;48.072;11.970;2022-11-11T02:29:01;5.48;94.68
65207;SHT31;58477;48.072;11.970;2022-11-11T02:31:47;5.44;94.43
65207;SHT31;58477;48.072;11.970;2022-11-11T02:34:32;5.34;94.55
65207;SHT31;58477;48.072;11.970;2022-11-11T02:37:20;5.27;94.54
65207;SHT31;58477;48.072;11.970;2022-11-11T02:40:05;5.12;94.56
65207;SHT31;58477;48.072;11.970;2022-11-11T02:42:52;5.14;94.39
65207;SHT31;58477;48.072;11.970;2022-11-11T02:45:36;5.17;94.26
65207;SHT31;58477;48.072;11.970;2022-11-11T02:48:20;4.97;94.38
65207;SHT31;58477;48.072;11.970;2022-11-11T02:51:04;4.94;94.85
65207;SHT31;58477;48.072;11.970;2022-11-11T02:53:50;4.92;95.06
65207;SHT31;58477;48.072;11.970;2022-11-11T02:56:34;4.91;94.90
65207;SHT31;58477;48.072;11.970;2022-11-11T02:59:38;4.91;95.05
65207;SHT31;58477;48.072;11.970;2022-11-11T03:02:22;4.90;95.19
65207;SHT31;58477;48.072;11.970;2022-11-11T03:05:09;4.92;95.13
65207;SHT31;58477;48.072;11.970;2022-11-11T03:07:54;4.92;95.22
65207;SHT31;58477;48.072;11.970;2022-11-11T03:10:38;4.83;95.26
65207;SHT31;58477;48.072;11.970;2022-11-11T03:13:22;4.83;95.35
65207;SHT31;58477;48.072;11.970;2022-11-11T03:16:06;4.77;94.89
65207;SHT31;58477;48.072;11.970;2022-11-11T03:19:10;4.83;94.87
65207;SHT31;58477;48.072;11.970;2022-11-11T03:21:54;4.84;94.85
65207;SHT31;58477;48.072;11.970;2022-11-11T03:24:38;4.69;94.56
65207;SHT31;58477;48.072;11.970;2022-11-11T03:27:41;4.67;95.28
65207;SHT31;58477;48.072;11.970;2022-11-11T03:30:26;4.47;95.32
65207;SHT31;58477;48.072;11.970;2022-11-11T03:33:11;4.42;95.46
65207;SHT31;58477;48.072;11.970;2022-11-11T03:35:55;4.63;95.94
65207;SHT31;58477;48.072;11.970;2022-11-11T03:38:39;4.59;95.41
65207;SHT31;58477;48.072;11.970;2022-11-11T03:41:23;4.61;95.31
65207;SHT31;58477;48.072;11.970;2022-11-11T03:44:07;4.66;95.30
65207;SHT31;58477;48.072;11.970;2022-11-11T03:46:51;4.60;95.26
65207;SHT31;58477;48.072;11.970;2022-11-11T03:49:36;4.60;95.15
65207;SHT31;58477;48.072;11.970;2022-11-11T03:52:20;4.64;95.11
65207;SHT31;58477;48.072;11.970;2022-11-11T03:55:04;4.54;94.68
65207;SHT31;58477;48.072;11.970;2022-11-11T03:57:48;4.66;95.50
65207;SHT31;58477;48.072;11.970;2022-11-11T04:00:33;4.73;95.02
65207;SHT31;58477;48.072;11.970;2022-11-11T04:03:18;4.79;94.66
65207;SHT31;58477;48.072;11.970;2022-11-11T04:06:21;4.90;94.63
65207;SHT31;58477;48.072;11.970;2022-11-11T04:09:24;4.83;94.37
65207;SHT31;58477;48.072;11.970;2022-11-11T04:12:27;4.84;94.24
65207;SHT31;58477;48.072;11.970;2022-11-11T04:15:11;4.95;93.99
65207;SHT31;58477;48.072;11.970;2022-11-11T04:18:14;4.97;93.74
65207;SHT31;58477;48.072;11.970;2022-11-11T04:20:58;5.00;93.18
65207;SHT31;58477;48.072;11.970;2022-11-11T04:24:01;5.04;93.20
65207;SHT31;58477;48.072;11.970;2022-11-11T04:26:45;5.01;93.34
65207;SHT31;58477;48.072;11.970;2022-11-11T04:29:29;4.94;93.37
65207;SHT31;58477;48.072;11.970;2022-11-11T04:32:18;4.87;93.79
65207;SHT31;58477;48.072;11.970;2022-11-11T04:35:21;4.80;93.94
65207;SHT31;58477;48.072;11.970;2022-11-11T04:38:07;4.79;93.84
65207;SHT31;58477;48.072;11.970;2022-11-11T04:41:10;4.81;93.65
65207;SHT31;58477;48.072;11.970;2022-11-11T04:43:56;4.73;93.37
65207;SHT31;58477;48.072;11.970;2022-11-11T04:46:58;4.54;93.56
65207;SHT31;58477;48.072;11.970;2022-11-11T04:49:42;4.36;93.75
65207;SHT31;58477;48.072;11.970;2022-11-11T04:52:27;4.17;94.41
65207;SHT31;58477;48.072;11.970;2022-11-11T04:55:14;4.03;94.80
65207;SHT31;58477;48.072;11.970;2022-11-11T04:58:19;3.98;95.26
65207;SHT31;58477;48.072;11.970;2022-11-11T05:01:04;4.02;95.80
65207;SHT31;58477;48.072;11.970;2022-11-11T05:03:48;4.07;95.69
65207;SHT31;58477;48.072;11.970;2022-11-11T05:06:32;4.17;95.57
65207;SHT31;58477;48.072;11.970;2022-11-11T05:09:35;4.19;95.32
65207;SHT31;58477;48.072;11.970;2022-11-11T05:12:19;4.05;95.40
65207;SHT31;58477;48.072;11.970;2022-11-11T05:15:03;3.96;95.51
65207;SHT31;58477;48.072;11.970;2022-11-11T05:18:07;3.83;95.91
65207;SHT31;58477;48.072;11.970;2022-11-11T05:21:19;3.78;96.02
65207;SHT31;58477;48.072;11.970;2022-11-11T05:24:04;3.67;96.02
65207;SHT31;58477;48.072;11.970;2022-11-11T05:27:07;3.71;96.22
65207;SHT31;58477;48.072;11.970;2022-11-11T05:29:51;3.72;96.17
65207;SHT31;58477;48.072;11.970;2022-11-11T05:32:35;3.72;96.44
65207;SHT31;58477;48.072;11.970;2022-11-11T05:35:19;3.77;96.61
65207;SHT31;58477;48.072;11.970;2022-11-11T05:38:03;3.78;96.67
65207;SHT31;58477;48.072;11.970;2022-11-11T05:41:03;3.70;96.45
65207;SHT31;58477;48.072;11.970;2022-11-11T05:43:47;3.65;96.60
65207;SHT31;58477;48.072;11.970;2022-11-11T05:46:31;3.72;97.00
65207;SHT31;58477;48.072;11.970;2022-11-11T05:49:15;3.70;96.63
65207;SHT31;58477;48.072;11.970;2022-11-11T05:51:59;3.67;96.64
65207;SHT31;58477;48.072;11.970;2022-11-11T05:54:44;3.70;96.75
65207;SHT31;58477;48.072;11.970;2022-11-11T05:57:29;3.72;96.86
65207;SHT31;58477;48.072;11.970;2022-11-11T06:00:13;3.91;97.11
65207;SHT31;58477;48.072;11.970;2022-11-11T06:03:01;4.12;96.90
65207;SHT31;58477;48.072;11.970;2022-11-11T06:05:47;4.35;96.54
65207;SHT31;58477;48.072;11.970;2022-11-11T06:08:31;4.45;95.88
65207;SHT31;58477;48.072;11.970;2022-11-11T06:11:15;4.52;94.89
65207;SHT31;58477;48.072;11.970;2022-11-11T06:13:59;4.60;94.18
65207;SHT31;58477;48.072;11.970;2022-11-11T06:16:43;4.69;93.96
65207;SHT31;58477;48.072;11.970;2022-11-11T06:19:27;4.71;93.22
65207;SHT31;58477;48.072;11.970;2022-11-11T06:22:11;4.76;92.84
65207;SHT31;58477;48.072;11.970;2022-11-11T06:24:56;4.77;92.80
65207;SHT31;58477;48.072;11.970;2022-11-11T06:27:59;4.79;92.84
65207;SHT31;58477;48.072;11.970;2022-11-11T06:30:44;4.88;92.20
65207;SHT31;58477;48.072;11.970;2022-11-11T06:33:28;4.97;91.78
65207;SHT31;58477;48.072;11.970;2022-11-11T06:36:15;4.92;91.90
65207;SHT31;58477;48.072;11.970;2022-11-11T06:38:59;5.08;91.23
65207;SHT31;58477;48.072;11.970;2022-11-11T06:41:44;5.12;91.12
65207;SHT31;58477;48.072;11.970;2022-11-11T06:44:28;5.15;91.14
65207;SHT31;58477;48.072;11.970;2022-11-11T06:47:12;5.27;90.74
65207;SHT31;58477;48.072;11.970;2022-11-11T06:49:56;5.35;90.36
65207;SHT31;58477;48.072;11.970;2022-11-11T06:52:40;5.38;90.14
65207;SHT31;58477;48.072;11.970;2022-11-11T06:55:24;5.39;90.24
65207;SHT31;58477;48.072;11.970;2022-11-11T06:58:13;5.48;89.71
65207;SHT31;58477;48.072;11.970;2022-11-11T07:01:03;5.51;89.76
65207;SHT31;58477;48.072;11.970;2022-11-11T07:03:47;5.51;89.93
65207;SHT31;58477;48.072;11.970;2022-11-11T07:06:31;5.59;90.03
65207;SHT31;58477;48.072;11.970;2022-11-11T07:09:15;5.62;89.95
65207;SHT31;58477;48.072;11.970;2022-11-11T07:11:59;5.75;89.70
65207;SHT31;58477;48.072;11.970;2022-11-11T07:14:44;5.80;89.30
65207;SHT31;58477;48.072;11.970;2022-11-11T07:17:27;5.83;89.31
65207;SHT31;58477;48.072;11.970;2022-11-11T07:20:11;5.99;89.49
65207;SHT31;58477;48.072;11.970;2022-11-11T07:22:56;6.02;88.77
65207;SHT31;58477;48.072;11.970;2022-11-11T07:25:40;6.17;89.15
65207;SHT31;58477;48.072;11.970;2022-11-11T07:28:24;6.29;88.42
65207;SHT31;58477;48.072;11.970;2022-11-11T07:31:08;6.57;87.67
65207;SHT31;58477;48.072;11.970;2022-11-11T07:33:52;6.74;87.70
65207;SHT31;58477;48.072;11.970;2022-11-11T07:36:37;6.77;87.15
65207;SHT31;58477;48.072;11.970;2022-11-11T07:39:21;6.74;87.33
65207;SHT31;58477;48.072;11.970;2022-11-11T07:42:05;6.77;86.57
65207;SHT31;58477;48.072;11.970;2022-11-11T07:44:49;6.89;85.77
65207;SHT31;58477;48.072;11.970;2022-11-11T07:47:33;6.87;85.27
65207;SHT31;58477;48.072;11.970;2022-11-11T07:50:18;7.22;85.79
65207;SHT31;58477;48.072;11.970;2022-11-11T07:53:02;7.32;84.35
65207;SHT31;58477;48.072;11.970;2022-11-11T07:55:46;7.46;83.57
65207;SHT31;58477;48.072;11.970;2022-11-11T07:58:31;7.70;83.61
65207;SHT31;58477;48.072;11.970;2022-11-11T08:01:15;7.66;82.64
65207;SHT31;58477;48.072;11.970;2022-11-11T08:03:59;7.80;82.51
65207;SHT31;58477;48.072;11.970;2022-11-11T08:06:43;7.90;82.26
65207;SHT31;58477;48.072;11.970;2022-11-11T08:09:28;7.56;82.74
65207;SHT31;58477;48.072;11.970;2022-11-11T08:12:12;7.33;83.30
65207;SHT31;58477;48.072;11.970;2022-11-11T08:15:15;7.33;83.30
65207;SHT31;58477;48.072;11.970;2022-11-11T08:17:59;7.19;83.91
65207;SHT31;58477;48.072;11.970;2022-11-11T08:20:43;7.18;84.13
65207;SHT31;58477;48.072;11.970;2022-11-11T08:23:28;7.15;84.79
65207;SHT31;58477;48.072;11.970;2022-11-11T08:26:19;7.20;84.87
65207;SHT31;58477;48.072;11.970;2022-11-11T08:29:04;7.33;84.21
65207;SHT31;58477;48.072;11.970;2022-11-11T08:31:51;7.52;83.30
65207;SHT31;58477;48.072;11.970;2022-11-11T08:34:35;7.39;83.37
65207;SHT31;58477;48.072;11.970;2022-11-11T08:37:19;7.59;83.51
65207;SHT31;58477;48.072;11.970;2022-11-11T08:40:04;7.83;83.01
65207;SHT31;58477;48.072;11.970;2022-11-11T08:42:48;8.21;82.01
65207;SHT31;58477;48.072;11.970;2022-11-11T08:45:33;8.33;80.89
65207;SHT31;58477;48.072;11.970;2022-11-11T08:48:17;8.03;81.63
65207;SHT31;58477;48.072;11.970;2022-11-11T08:51:01;8.40;82.20
65207;SHT31;58477;48.072;11.970;2022-11-11T08:53:45;8.58;80.53
65207;SHT31;58477;48.072;11.970;2022-11-11T08:56:29;9.40;78.63
65207;SHT31;58477;48.072;11.970;2022-11-11T08:59:14;9.76;76.90
65207;SHT31;58477;48.072;11.970;2022-11-11T09:01:58;9.77;78.07
65207;SHT31;58477;48.072;11.970;2022-11-11T09:04:42;11.07;74.89
65207;SHT31;58477;48.072;11.970;2022-11-11T09:07:26;10.83;74.27
65207;SHT31;58477;48.072;11.970;2022-11-11T09:10:13;11.46;73.43
65207;SHT31;58477;48.072;11.970;2022-11-11T09:12:58;12.14;71.89
65207;SHT31;58477;48.072;11.970;2022-11-11T09:15:42;11.68;71.68
65207;SHT31;58477;48.072;11.970;2022-11-11T09:18:26;10.85;72.57
65207;SHT31;58477;48.072;11.970;2022-11-11T09:21:10;10.73;72.25
65207;SHT31;58477;48.072;11.970;2022-11-11T09:23:54;10.66;74.77
65207;SHT31;58477;48.072;11.970;2022-11-11T09:26:38;10.58;73.38
65207;SHT31;58477;48.072;11.970;2022-11-11T09:29:23;9.98;74.86
65207;SHT31;58477;48.072;11.970;2022-11-11T09:32:07;9.90;76.56
65207;SHT31;58477;48.072;11.970;2022-11-11T09:34:51;10.11;75.55
65207;SHT31;58477;48.072;11.970;2022-11-11T09:37:35;11.00;74.19
65207;SHT31;58477;48.072;11.970;2022-11-11T09:40:21;11.41;74.22
65207;SHT31;58477;48.072;11.970;2022-11-11T09:43:26;12.45;71.92
65207;SHT31;58477;48.072;11.970;2022-11-11T09:46:17;12.93;69.69
65207;SHT31;58477;48.072;11.970;2022-11-11T09:55:40;12.31;69.41
65207;SHT31;58477;48.072;11.970;2022-11-11T09:58:30;12.21;69.65
65207;SHT31;58477;48.072;11.970;2022-11-11T10:01:24;12.56;68.59
65207;SHT31;58477;48.072;11.970;2022-11-11T10:07:06;12.79;67.63
65207;SHT31;58477;48.072;11.970;2022-11-11T10:10:03;13.03;66.72
65207;SHT31;58477;48.072;11.970;2022-11-11T10:12:54;12.87;68.14
65207;SHT31;58477;48.072;11.970;2022-11-11T10:15:50;13.03;67.83
65207;SHT31;58477;48.072;11.970;2022-11-11T10:21:51;14.04;65.21
65207;SHT31;58477;48.072;11.970;2022-11-11T10:24:40;14.02;63.17
65207;SHT31;58477;48.072;11.970;2022-11-11T10:27:25;14.68;63.79
65207;SHT31;58477;48.072;11.970;2022-11-11T10:30:19;15.45;61.77
65207;SHT31;58477;48.072;11.970;2022-11-11T10:33:18;15.20;61.90
65207;SHT31;58477;48.072;11.970;2022-11-11T10:36:05;15.91;60.94
65207;SHT31;58477;48.072;11.970;2022-11-11T10:39:01;15.87;59.87
65207;SHT31;58477;48.072;11.970;2022-11-11T10:41:47;15.88;59.68
65207;SHT31;58477;48.072;11.970;2022-11-11T10:44:32;16.63;59.25
65207;SHT31;58477;48.072;11.970;2022-11-11T10:50:20;17.77;57.54
65207;SHT31;58477;48.072;11.970;2022-11-11T10:53:16;17.92;56.41
65207;SHT31;58477;48.072;11.970;2022-11-11T10:56:38;15.98;59.83
65207;SHT31;58477;48.072;11.970;2022-11-11T10:59:48;16.15;59.85
65207;SHT31;58477;48.072;11.970;2022-11-11T11:05:55;15.23;61.44
65207;SHT31;58477;48.072;11.970;2022-11-11T11:08:44;14.97;62.15
65207;SHT31;58477;48.072;11.970;2022-11-11T11:11:32;15.16;61.24
65207;SHT31;58477;48.072;11.970;2022-11-11T11:14:23;15.23;61.32
65207;SHT31;58477;48.072;11.970;2022-11-11T11:17:18;15.54;61.11
65207;SHT31;58477;48.072;11.970;2022-11-11T11:20:14;15.55;61.28
65207;SHT31;58477;48.072;11.970;2022-11-11T11:22:59;15.03;64.04
65207;SHT31;58477;48.072;11.970;2022-11-11T11:25:52;15.21;62.58
65207;SHT31;58477;48.072;11.970;2022-11-11T11:28:57;15.57;62.52
65207;SHT31;58477;48.072;11.970;2022-11-11T11:31:42;15.77;62.02
65207;SHT31;58477;48.072;11.970;2022-11-11T11:34:51;15.11;63.59
65207;SHT31;58477;48.072;11.970;2022-11-11T11:37:49;15.30;64.00
65207;SHT31;58477;48.072;11.970;2022-11-11T11:43:37;14.26;65.27
65207;SHT31;58477;48.072;11.970;2022-11-11T11:46:29;13.89;66.63
65207;SHT31;58477;48.072;11.970;2022-11-11T11:52:15;13.57;67.51
65207;SHT31;58477;48.072;11.970;2022-11-11T11:55:24;13.41;67.06
65207;SHT31;58477;48.072;11.970;2022-11-11T11:58:35;13.17;68.26
65207;SHT31;58477;48.072;11.970;2022-11-11T12:01:29;13.02;68.09
65207;SHT31;58477;48.072;11.970;2022-11-11T12:11:44;12.48;70.88
65207;SHT31;58477;48.072;11.970;2022-11-11T12:17:34;12.87;70.83
65207;SHT31;58477;48.072;11.970;2022-11-11T12:35:36;12.50;71.55
65207;SHT31;58477;48.072;11.970;2022-11-11T12:38:48;12.38;72.45
65207;SHT31;58477;48.072;11.970;2022-11-11T12:44:41;12.73;71.67
65207;SHT31;58477;48.072;11.970;2022-11-11T12:56:53;12.89;71.65
65207;SHT31;58477;48.072;11.970;2022-11-11T12:59:50;12.93;70.74
65207;SHT31;58477;48.072;11.970;2022-11-11T13:17:32;12.38;72.07
65207;SHT31;58477;48.072;11.970;2022-11-11T13:23:25;12.24;72.14
65207;SHT31;58477;48.072;11.970;2022-11-11T13:26:41;12.15;73.08
65207;SHT31;58477;48.072;11.970;2022-11-11T13:29:46;12.15;73.54
65207;SHT31;58477;48.072;11.970;2022-11-11T13:32:49;12.02;73.83
65207;SHT31;58477;48.072;11.970;2022-11-11T13:35:47;12.06;74.09
65207;SHT31;58477;48.072;11.970;2022-11-11T13:38:36;12.06;73.94
65207;SHT31;58477;48.072;11.970;2022-11-11T13:41:29;11.97;73.98
65207;SHT31;58477;48.072;11.970;2022-11-11T13:44:21;12.10;73.94
65207;SHT31;58477;48.072;11.970;2022-11-11T13:47:11;12.22;73.52
65207;SHT31;58477;48.072;11.970;2022-11-11T13:50:07;12.11;74.34
65207;SHT31;58477;48.072;11.970;2022-11-11T13:53:00;11.99;74.41
65207;SHT31;58477;48.072;11.970;2022-11-11T13:55:45;12.15;73.88
65207;SHT31;58477;48.072;11.970;2022-11-11T13:58:33;12.12;74.02
65207;SHT31;58477;48.072;11.970;2022-11-11T14:01:18;11.97;74.39
65207;SHT31;58477;48.072;11.970;2022-11-11T14:04:07;12.01;73.98
65207;SHT31;58477;48.072;11.970;2022-11-11T14:06:53;12.11;73.63
65207;SHT31;58477;48.072;11.970;2022-11-11T14:09:59;12.14;73.74
65207;SHT31;58477;48.072;11.970;2022-11-11T14:12:53;12.11;73.13
65207;SHT31;58477;48.072;11.970;2022-11-11T14:15:48;12.14;72.86
65207;SHT31;58477;48.072;11.970;2022-11-11T14:18:36;12.15;73.28
65207;SHT31;58477;48.072;11.970;2022-11-11T14:24:38;11.99;73.43
65207;SHT31;58477;48.072;11.970;2022-11-11T14:27:29;11.99;73.86
65207;SHT31;58477;48.072;11.970;2022-11-11T14:30:36;11.74;74.39
65207;SHT31;58477;48.072;11.970;2022-11-11T14:42:06;11.56;74.80
65207;SHT31;58477;48.072;11.970;2022-11-11T14:51:48;11.67;74.71
65207;SHT31;58477;48.072;11.970;2022-11-11T15:00:23;11.57;75.30
65207;SHT31;58477;48.072;11.970;2022-11-11T15:03:25;11.48;75.34
65207;SHT31;58477;48.072;11.970;2022-11-11T15:06:24;11.53;75.69
65207;SHT31;58477;48.072;11.970;2022-11-11T15:13:08;11.30;76.23
65207;SHT31;58477;48.072;11.970;2022-11-11T15:21:35;11.02;77.30
65207;SHT31;58477;48.072;11.970;2022-11-11T15:24:34;10.88;77.95
65207;SHT31;58477;48.072;11.970;2022-11-11T15:36:59;9.98;81.39
65207;SHT31;58477;48.072;11.970;2022-11-11T15:39:47;9.73;82.31
65207;SHT31;58477;48.072;11.970;2022-11-11T15:42:36;9.54;83.00
65207;SHT31;58477;48.072;11.970;2022-11-11T15:45:30;9.53;83.57
65207;SHT31;58477;48.072;11.970;2022-11-11T15:48:18;9.53;83.69
65207;SHT31;58477;48.072;11.970;2022-11-11T15:57:25;9.30;84.73
65207;SHT31;58477;48.072;11.970;2022-11-11T16:03:14;9.03;86.00
65207;SHT31;58477;48.072;11.970;2022-11-11T16:06:01;8.83;86.89
65207;SHT31;58477;48.072;11.970;2022-11-11T16:08:51;8.79;87.17
65207;SHT31;58477;48.072;11.970;2022-11-11T16:11:38;8.57;88.23
65207;SHT31;58477;48.072;11.970;2022-11-11T16:14:39;8.72;88.12
65207;SHT31;58477;48.072;11.970;2022-11-11T16:17:30;8.45;88.51
65207;SHT31;58477;48.072;11.970;2022-11-11T16:20:26;8.59;88.55
65207;SHT31;58477;48.072;11.970;2022-11-11T16:23:16;8.59;88.57
65207;SHT31;58477;48.072;11.970;2022-11-11T16:26:00;8.65;88.31
65207;SHT31;58477;48.072;11.970;2022-11-11T16:28:50;8.68;88.09
65207;SHT31;58477;48.072;11.970;2022-11-11T16:31:37;8.52;88.15
65207;SHT31;58477;48.072;11.970;2022-11-11T16:37:12;8.41;88.82
65207;SHT31;58477;48.072;11.970;2022-11-11T16:40:25;8.14;89.18
65207;SHT31;58477;48.072;11.970;2022-11-11T16:49:37;7.52;91.06
65207;SHT31;58477;48.072;11.970;2022-11-11T16:52:24;7.48;91.88
65207;SHT31;58477;48.072;11.970;2022-11-11T16:55:15;7.52;92.15
65207;SHT31;58477;48.072;11.970;2022-11-11T16:58:08;7.40;92.43
65207;SHT31;58477;48.072;11.970;2022-11-11T17:00:59;7.33;92.74
65207;SHT31;58477;48.072;11.970;2022-11-11T17:03:55;7.74;91.14
65207;SHT31;58477;48.072;11.970;2022-11-11T17:09:39;7.55;91.66
65207;SHT31;58477;48.072;11.970;2022-11-11T17:12:30;7.39;91.70
65207;SHT31;58477;48.072;11.970;2022-11-11T17:15:16;7.22;91.61
65207;SHT31;58477;48.072;11.970;2022-11-11T17:18:00;7.09;92.60
65207;SHT31;58477;48.072;11.970;2022-11-11T17:20:44;6.91;92.42
65207;SHT31;58477;48.072;11.970;2022-11-11T17:23:29;7.25;92.88
65207;SHT31;58477;48.072;11.970;2022-11-11T17:26:16;7.42;91.65
65207;SHT31;58477;48.072;11.970;2022-11-11T17:29:00;7.45;92.06
65207;SHT31;58477;48.072;11.970;2022-11-11T17:31:45;7.42;91.48
65207;SHT31;58477;48.072;11.970;2022-11-11T17:34:30;7.29;91.52
65207;SHT31;58477;48.072;11.970;2022-11-11T17:37:14;7.08;91.64
65207;SHT31;58477;48.072;11.970;2022-11-11T17:39:58;7.19;92.28
65207;SHT31;58477;48.072;11.970;2022-11-11T17:42:42;7.19;92.09
65207;SHT31;58477;48.072;11.970;2022-11-11T17:45:26;7.22;91.91
65207;SHT31;58477;48.072;11.970;2022-11-11T17:48:11;7.29;91.72
65207;SHT31;58477;48.072;11.970;2022-11-11T17:50:55;7.33;91.71
65207;SHT31;58477;48.072;11.970;2022-11-11T17:53:39;7.39;91.58
65207;SHT31;58477;48.072;11.970;2022-11-11T17:56:24;7.52;91.48
65207;SHT31;58477;48.072;11.970;2022-11-11T17:59:09;7.49;91.46
65207;SHT31;58477;48.072;11.970;2022-11-11T18:01:53;7.45;91.97
65207;SHT31;58477;48.072;11.970;2022-11-11T18:04:38;7.60;91.50
65207;SHT31;58477;48.072;11.970;2022-11-11T18:07:22;7.38;91.44
65207;SHT31;58477;48.072;11.970;2022-11-11T18:10:08;7.32;92.04
65207;SHT31;58477;48.072;11.970;2022-11-11T18:12:52;7.20;91.80
65207;SHT31;58477;48.072;11.970;2022-11-11T18:15:37;7.25;92.25
65207;SHT31;58477;48.072;11.970;2022-11-11T18:18:21;7.48;91.51
65207;SHT31;58477;48.072;11.970;2022-11-11T18:21:06;7.48;91.40
65207;SHT31;58477;48.072;11.970;2022-11-11T18:23:50;7.33;91.97
65207;SHT31;58477;48.072;11.970;2022-11-11T18:26:36;7.29;92.12
65207;SHT31;58477;48.072;11.970;2022-11-11T18:29:20;7.12;92.15
65207;SHT31;58477;48.072;11.970;2022-11-11T18:32:04;7.01;92.47
65207;SHT31;58477;48.072;11.970;2022-11-11T18:34:48;6.85;92.88
65207;SHT31;58477;48.072;11.970;2022-11-11T18:37:32;6.88;93.15
65207;SHT31;58477;48.072;11.970;2022-11-11T18:40:19;6.87;93.09
65207;SHT31;58477;48.072;11.970;2022-11-11T18:43:03;6.92;92.81
65207;SHT31;58477;48.072;11.970;2022-11-11T18:45:48;6.91;93.21
65207;SHT31;58477;48.072;11.970;2022-11-11T18:48:34;6.96;93.26
65207;SHT31;58477;48.072;11.970;2022-11-11T18:51:18;6.92;93.21
65207;SHT31;58477;48.072;11.970;2022-11-11T18:54:03;6.85;93.18
65207;SHT31;58477;48.072;11.970;2022-11-11T18:56:52;6.83;93.07
65207;SHT31;58477;48.072;11.970;2022-11-11T18:59:36;6.94;93.53
65207;SHT31;58477;48.072;11.970;2022-11-11T19:02:20;7.04;93.37
65207;SHT31;58477;48.072;11.970;2022-11-11T19:05:05;6.98;93.07
65207;SHT31;58477;48.072;11.970;2022-11-11T19:07:49;6.98;93.68
65207;SHT31;58477;48.072;11.970;2022-11-11T19:10:33;7.01;92.94
65207;SHT31;58477;48.072;11.970;2022-11-11T19:13:17;6.94;92.92
65207;SHT31;58477;48.072;11.970;2022-11-11T19:16:07;7.02;92.56
65207;SHT31;58477;48.072;11.970;2022-11-11T19:18:52;7.09;92.73
65207;SHT31;58477;48.072;11.970;2022-11-11T19:21:37;7.11;92.82
65207;SHT31;58477;48.072;11.970;2022-11-11T19:24:22;7.16;92.31
65207;SHT31;58477;48.072;11.970;2022-11-11T19:27:06;7.23;91.87
65207;SHT31;58477;48.072;11.970;2022-11-11T19:29:50;7.15;91.95
65207;SHT31;58477;48.072;11.970;2022-11-11T19:32:34;7.01;92.16
65207;SHT31;58477;48.072;11.970;2022-11-11T19:35:18;7.04;92.18
65207;SHT31;58477;48.072;11.970;2022-11-11T19:38:03;7.04;92.23
65207;SHT31;58477;48.072;11.970;2022-11-11T19:40:47;6.96;92.86
65207;SHT31;58477;48.072;11.970;2022-11-11T19:43:31;6.78;92.91
65207;SHT31;58477;48.072;11.970;2022-11-11T19:46:17;6.70;93.53
65207;SHT31;58477;48.072;11.970;2022-11-11T19:49:02;6.70;93.73
65207;SHT31;58477;48.072;11.970;2022-11-11T19:51:46;6.78;93.14
65207;SHT31;58477;48.072;11.970;2022-11-11T19:54:30;6.68;93.36
65207;SHT31;58477;48.072;11.970;2022-11-11T19:57:14;6.73;93.37
65207;SHT31;58477;48.072;11.970;2022-11-11T19:59:59;6.63;93.78
65207;SHT31;58477;48.072;11.970;2022-11-11T20:02:42;6.63;94.00
65207;SHT31;58477;48.072;11.970;2022-11-11T20:05:27;6.67;93.41
65207;SHT31;58477;48.072;11.970;2022-11-11T20:08:11;6.41;92.75
65207;SHT31;58477;48.072;11.970;2022-11-11T20:11:06;6.21;93.19
65207;SHT31;58477;48.072;11.970;2022-11-11T20:13:50;5.93;93.59